Live aus Altenrhein
LIVE
LSZR 270650Z AUTO 29007KT 7000 -RA OVC011 04/02 Q1013

People´s Info Center:

Öffnungszeiten Mo-Fr, 8-18 Uhr

 

info@peoples.ch

 
Aus Österreich:

T: +43 (0)5572 203 610

 

Aus CH / LI / DE:

T: +41 (0)71 858 51 60

 

 

Einzelfahrt oder Hin-/Rückfahrt?